Ardmore, Maryland
Current Conditions -  °F | °C
As of 8:15 PM on Saturday 22 Nov 2014 (Local Time) from KCGS Reporting Station
Broken Clouds Broken Clouds  
Wind Chill:   Ceiling: 12000
Heat Index:   Visibility: 10mi
Dew Point: -8°   Wind: 0mph
Humidity: 34%   Direction: NA
Pressure: 30.28"   Gusts: NA
Location:  38.9183°N, 76.8721°W
Report Text: KCGS 230115Z AUTO 00000KT 10SM BKN120 07/M08 A3028 RMK AO1
Loading
Personal Weather Stations






























Interactive Weather Map New forecast layout! Learn more

10-Day Weather Forecast

Advertisements
Track Severe Weather on mobile